Time;durP1;ratioP1;P1;durP2;ratioP2;P2;SDS_P1;SDS_P2;PMS_P1;PMS_P2;Temp;Humidity;BMP_temperature;BMP_pressure;BME280_temperature;BME280_humidity;BME280_pressure;Samples;Min_cycle;Max_cycle;Signal;HPM_P1;HPM_P2
2022/05/24 00:04:29;;;;;;;9.10;4.75;;;;;;;15.12;64.36;97133.25;10254006;28;20345;-58
2022/05/24 00:09:27;;;;;;;;;;;;;;;15.07;64.54;97135.16;10253524;28;20393;-58
2022/05/24 00:19:44;;;;;;;7.15;3.67;;;;;;;14.94;66.55;97134.63;10265137;28;20739;-58
2022/05/24 00:24:43;;;;;;;7.53;3.75;;;;;;;14.69;67.79;97123.16;10292224;28;20432;-58
2022/05/24 00:29:42;;;;;;;5.88;3.95;;;;;;;14.55;68.33;97131.38;10293303;28;20040;-58
2022/05/24 00:34:41;;;;;;;7.28;4.00;;;;;;;14.53;68.30;97130.56;10293411;28;20042;-58
2022/05/24 00:39:40;;;;;;;;;;;;;;;14.46;69.19;97142.06;10293347;28;20076;-58
2022/05/24 00:44:46;;;;;;;9.93;4.32;;;;;;;14.46;69.57;97136.84;10292313;28;19913;-58
2022/05/24 00:49:51;;;;;;;8.05;4.60;;;;;;;14.39;69.44;97136.97;10292287;28;20069;-58
2022/05/24 00:54:50;;;;;;;5.68;4.13;;;;;;;14.38;69.69;97129.19;10255789;28;20058;-58
2022/05/24 01:00:03;;;;;;;7.53;4.13;;;;;;;14.38;70.07;97124.84;10251413;28;20061;-58
2022/05/24 01:05:08;;;;;;;8.93;4.40;;;;;;;14.34;70.30;97117.13;10251634;28;20066;-58
2022/05/24 01:10:15;;;;;;;5.93;4.10;;;;;;;14.34;71.07;97111.91;10251363;28;20074;-58
2022/05/24 01:15:16;;;;;;;7.15;4.45;;;;;;;14.30;71.54;97121.56;10251371;28;20553;-58
2022/05/24 01:20:16;;;;;;;7.22;4.63;;;;;;;14.32;71.21;97109.34;10272291;28;20088;-58
2022/05/24 01:25:28;;;;;;;7.93;4.80;;;;;;;14.27;71.25;97108.59;10291657;28;20065;-58
2022/05/24 01:30:27;;;;;;;9.18;5.30;;;;;;;14.26;71.23;97114.69;10293046;28;20513;-58
2022/05/24 01:40:46;;;;;;;11.57;6.80;;;;;;;14.13;70.93;97097.66;10294538;28;20202;-58
2022/05/24 01:46:00;;;;;;;11.63;7.28;;;;;;;14.13;70.65;97111.56;10292416;28;20069;-58
2022/05/24 01:51:01;;;;;;;15.45;9.73;;;;;;;13.97;71.30;97111.09;10289065;28;20069;-58
2022/05/24 01:56:00;;;;;;;17.02;10.40;;;;;;;13.94;72.07;97123.38;10274467;28;20073;-58
2022/05/24 02:01:11;;;;;;;17.13;10.73;;;;;;;13.91;72.03;97132.13;10294409;28;20103;-58
2022/05/24 02:06:26;;;;;;;8.68;6.00;;;;;;;13.82;72.67;97127.13;10294276;28;20077;-58
2022/05/24 02:11:28;;;;;;;8.70;5.13;;;;;;;13.61;73.83;97125.00;10294502;28;20681;-58
2022/05/24 02:16:32;;;;;;;14.55;8.15;;;;;;;13.48;74.68;97130.47;10293975;28;20084;-58
2022/05/24 02:21:31;;;;;;;13.75;8.25;;;;;;;13.42;75.14;97135.84;10293929;28;20500;-58
2022/05/24 02:26:32;;;;;;;10.15;6.80;;;;;;;13.42;75.39;97141.06;10294024;28;20037;-58
2022/05/24 02:31:31;;;;;;;9.40;6.57;;;;;;;13.45;75.96;97140.97;10292067;28;20085;-58
2022/05/24 02:36:29;;;;;;;8.85;6.20;;;;;;;13.55;75.61;97126.00;10296105;28;20030;-57
2022/05/24 02:41:29;;;;;;;10.32;6.13;;;;;;;13.54;75.49;97112.13;10297606;28;20497;-58
2022/05/24 02:46:30;;;;;;;;;;;;;;;13.70;75.42;97137.81;10293958;28;20135;-58
2022/05/24 02:51:29;;;;;;;12.77;6.25;;;;;;;13.75;75.14;97136.00;10288350;28;20001;-58
2022/05/24 02:56:28;;;;;;;8.45;5.80;;;;;;;13.82;74.71;97132.34;10282828;28;20065;-58
2022/05/24 03:01:28;;;;;;;8.65;5.30;;;;;;;13.93;74.29;97127.69;10296683;28;20079;-58
2022/05/24 03:06:28;;;;;;;7.80;5.55;;;;;;;13.92;74.02;97131.22;10295455;28;20068;-58
2022/05/24 03:11:27;;;;;;;8.23;5.63;;;;;;;13.78;74.69;97123.72;10296429;28;20069;-58
2022/05/24 03:16:26;;;;;;;;;;;;;;;14.03;74.29;97140.50;10290639;28;20117;-58
2022/05/24 03:21:25;;;;;;;10.17;5.37;;;;;;;14.08;74.12;97141.28;10295724;28;19955;-58
2022/05/24 03:26:24;;;;;;;7.93;5.57;;;;;;;14.17;73.67;97141.03;10294661;28;20073;-58
2022/05/24 03:31:23;;;;;;;9.07;4.95;;;;;;;14.24;73.58;97139.13;10294896;28;20084;-58
2022/05/24 03:36:22;;;;;;;8.35;5.72;;;;;;;14.24;73.40;97126.97;10294463;28;20069;-58
2022/05/24 03:41:21;;;;;;;10.43;5.93;;;;;;;14.40;73.15;97128.28;10294954;28;20108;-58
2022/05/24 03:46:20;;;;;;;11.32;6.70;;;;;;;14.42;72.98;97128.22;10290893;28;20037;-57
2022/05/24 03:51:19;;;;;;;19.15;7.55;;;;;;;14.50;73.14;97125.38;10285307;28;20080;-58
2022/05/24 03:56:18;;;;;;;9.25;5.63;;;;;;;14.60;72.43;97142.53;10253989;28;20038;-58
2022/05/24 04:01:17;;;;;;;11.60;6.50;;;;;;;14.76;71.35;97153.47;10253627;28;20484;-58
2022/05/24 04:06:16;;;;;;;7.57;5.43;;;;;;;14.96;70.57;97152.91;10253949;28;20121;-58
2022/05/24 04:11:15;;;;;;;10.10;5.85;;;;;;;15.09;71.21;97142.97;10254746;28;20052;-58
2022/05/24 04:16:14;;;;;;;9.52;5.93;;;;;;;15.12;71.51;97130.66;10268683;28;20042;-58
2022/05/24 04:21:14;;;;;;;11.75;6.18;;;;;;;15.22;71.43;97139.97;10293756;28;20484;-58
2022/05/24 04:26:13;;;;;;;11.32;6.38;;;;;;;15.43;70.94;97135.81;10293785;28;20073;-58
2022/05/24 04:31:12;;;;;;;;;;;;;;;15.51;69.66;97130.38;10293075;28;20042;-58
2022/05/24 04:36:11;;;;;;;8.50;5.47;;;;;;;15.61;69.03;97139.63;10292697;28;20488;-58
2022/05/24 04:47:06;;;;;;;8.73;5.10;;;;;;;15.58;68.18;97147.59;10290315;28;20461;-58
2022/05/24 04:51:46;;;;;;;7.80;4.30;;;;;;;15.61;67.20;97157.94;10288212;28;20068;-58
2022/05/24 04:56:46;;;;;;;8.40;4.93;;;;;;;15.68;67.44;97154.22;10291145;28;20069;-58
2022/05/24 05:01:45;;;;;;;8.73;4.88;;;;;;;15.86;67.10;97162.47;10292532;28;20077;-58
2022/05/24 05:06:45;;;;;;;9.95;5.78;;;;;;;16.10;67.93;97171.28;10290915;28;20069;-58
2022/05/24 05:11:44;;;;;;;6.88;5.05;;;;;;;16.31;66.82;97174.94;10289807;28;20142;-58
2022/05/24 05:16:43;;;;;;;;;;;;;;;16.43;65.83;97174.53;10290745;28;20030;-58
2022/05/24 05:21:42;;;;;;;10.80;6.07;;;;;;;16.60;65.27;97173.94;10291278;28;19988;-58
2022/05/24 05:26:41;;;;;;;;;;;;;;;16.97;64.57;97192.81;10291597;28;20072;-58
2022/05/24 05:31:40;;;;;;;8.23;5.13;;;;;;;17.28;63.45;97203.03;10290773;28;19972;-58
2022/05/24 05:36:38;;;;;;;;;;;;;;;17.67;61.69;97205.09;10290458;28;20069;-58
2022/05/24 05:41:37;;;;;;;9.30;4.97;;;;;;;18.05;61.25;97203.63;10291020;28;19949;-58
2022/05/24 05:46:36;;;;;;;;;;;;;;;18.34;59.59;97205.09;10289724;28;20045;-59
2022/05/24 05:51:35;;;;;;;8.40;4.30;;;;;;;18.42;58.22;97196.03;10282347;28;20653;-58
2022/05/24 05:56:34;;;;;;;6.68;4.32;;;;;;;18.52;58.56;97197.34;10290632;28;20927;-58
2022/05/24 06:01:34;;;;;;;6.63;4.70;;;;;;;18.60;57.70;97196.13;10289810;28;20442;-58
2022/05/24 06:06:37;;;;;;;5.95;3.97;;;;;;;18.89;58.22;97201.06;10295698;28;20062;-58
2022/05/24 06:11:36;;;;;;;4.82;3.65;;;;;;;19.22;57.43;97206.63;10307298;28;20064;-58
2022/05/24 06:16:36;;;;;;;5.40;4.10;;;;;;;19.53;54.56;97216.63;10309082;28;20470;-58
2022/05/24 06:21:35;;;;;;;7.15;4.22;;;;;;;19.87;53.22;97212.47;10297941;28;20074;-58
2022/05/24 06:26:34;;;;;;;5.82;4.00;;;;;;;20.20;51.28;97206.50;10297711;28;20053;-58
2022/05/24 06:31:33;;;;;;;5.43;4.30;;;;;;;20.54;51.91;97203.13;10290002;28;20100;-58
2022/05/24 06:36:32;;;;;;;7.65;4.93;;;;;;;20.87;51.74;97204.97;10299407;28;20065;-58
2022/05/24 06:41:31;;;;;;;9.50;4.95;;;;;;;21.07;51.87;97196.00;10300278;28;20038;-58
2022/05/24 06:46:31;;;;;;;6.45;4.47;;;;;;;21.05;52.50;97176.78;10292615;28;20056;-59
2022/05/24 06:51:30;;;;;;;10.25;4.50;;;;;;;20.83;50.95;97155.94;10289165;28;20151;-59
2022/05/24 06:56:29;;;;;;;6.68;4.22;;;;;;;21.01;51.77;97181.38;10234290;28;20042;-59
2022/05/24 07:06:46;;;;;;;5.57;4.47;;;;;;;20.98;51.37;97184.16;10300682;28;20069;-59
2022/05/24 07:11:45;;;;;;;6.80;4.18;;;;;;;21.19;50.54;97165.50;10298928;28;20116;-59
2022/05/24 07:16:44;;;;;;;6.45;4.25;;;;;;;21.44;50.28;97179.13;10297566;28;20069;-58
2022/05/24 07:21:44;;;;;;;7.78;4.38;;;;;;;21.37;49.69;97183.03;10298581;28;20112;-59
2022/05/24 07:26:43;;;;;;;7.10;4.95;;;;;;;21.62;49.88;97176.44;10291243;28;20476;-59
2022/05/24 07:31:42;;;;;;;9.65;4.78;;;;;;;22.00;48.03;97197.25;10292241;28;20074;-59
2022/05/24 07:36:41;;;;;;;10.43;5.88;;;;;;;22.25;48.15;97194.03;10295803;28;20113;-59
2022/05/24 07:46:58;;;;;;;15.23;7.75;;;;;;;22.92;46.33;97176.91;10288066;28;20065;-59
2022/05/24 07:51:57;;;;;;;8.95;6.18;;;;;;;22.84;46.76;97176.53;10293398;28;20030;-58
2022/05/24 07:56:56;;;;;;;9.82;5.60;;;;;;;23.02;46.51;97167.50;10294168;28;20105;-58
2022/05/24 08:01:55;;;;;;;12.65;5.72;;;;;;;23.20;45.39;97168.13;10294413;28;20036;-59
2022/05/24 08:06:55;;;;;;;9.82;5.10;;;;;;;23.39;45.56;97175.78;10293947;28;20046;-59
2022/05/24 08:11:54;;;;;;;6.63;4.50;;;;;;;23.35;45.20;97168.13;10293820;28;20072;-58
2022/05/24 08:16:53;;;;;;;11.68;7.43;;;;;;;23.35;45.79;97163.72;10293948;28;20113;-58
2022/05/24 08:21:52;;;;;;;8.32;5.15;;;;;;;23.11;46.44;97176.66;10293700;28;20084;-59
2022/05/24 08:26:51;;;;;;;8.45;5.18;;;;;;;22.92;47.31;97161.03;10293383;28;20029;-58
2022/05/24 08:31:50;;;;;;;6.97;5.13;;;;;;;22.90;46.74;97162.06;10286225;28;20465;-58
2022/05/24 08:36:49;;;;;;;7.65;4.57;;;;;;;22.91;47.36;97158.50;10292389;28;20405;-58
2022/05/24 08:42:16;;;;;;;8.75;5.82;;;;;;;22.77;47.33;97167.25;10291348;28;20065;-59
2022/05/24 08:52:43;;;;;;;11.23;5.57;;;;;;;23.30;46.93;97164.94;10292459;28;20069;-59
2022/05/24 08:57:50;;;;;;;8.68;5.50;;;;;;;23.64;46.41;97161.91;10285071;28;20096;-59
2022/05/24 09:02:49;;;;;;;8.52;5.10;;;;;;;23.87;45.64;97156.09;10293108;28;20095;-59
2022/05/24 09:08:28;;;;;;;7.13;5.00;;;;;;;23.86;46.54;97152.59;10290565;28;20057;-59
2022/05/24 09:13:45;;;;;;;7.30;5.10;;;;;;;24.05;45.64;97162.84;10290385;28;20069;-59
2022/05/24 09:19:06;;;;;;;7.78;5.00;;;;;;;23.86;45.03;97163.19;10283106;28;20758;-59
2022/05/24 09:25:00;;;;;;;8.00;5.18;;;;;;;24.00;44.71;97160.50;10291489;28;20053;-59
2022/05/24 09:30:08;;;;;;;9.68;5.75;;;;;;;24.27;44.02;97157.03;10282391;28;20121;-59
2022/05/24 09:35:16;;;;;;;6.32;5.10;;;;;;;24.74;43.90;97174.22;10293186;28;20057;-58
2022/05/24 09:40:17;;;;;;;7.60;5.50;;;;;;;24.99;44.08;97177.88;10292220;28;20762;-59
2022/05/24 09:45:23;;;;;;;7.38;5.72;;;;;;;24.87;43.70;97176.91;10298280;28;20332;-59
2022/05/24 09:50:32;;;;;;;6.30;4.68;;;;;;;24.92;44.28;97158.91;10299781;28;20061;-59
2022/05/24 09:55:59;;;;;;;6.53;4.90;;;;;;;24.89;44.81;97170.56;10302434;28;20073;-59
2022/05/24 10:01:04;;;;;;;8.70;4.50;;;;;;;24.88;43.48;97179.47;10301612;28;20096;-57
2022/05/24 10:06:08;;;;;;;6.35;4.18;;;;;;;24.88;46.07;97195.41;10302000;28;20470;-57
2022/05/24 10:11:19;;;;;;;8.70;4.10;;;;;;;25.11;45.55;97198.28;10300591;28;20049;-57
2022/05/24 10:16:39;;;;;;;8.93;3.95;;;;;;;24.76;44.98;97220.09;10297917;28;20073;-57
2022/05/24 10:21:38;;;;;;;3.67;3.00;;;;;;;24.42;44.70;97255.94;10294251;28;20557;-57
2022/05/24 10:26:58;;;;;;;7.43;3.40;;;;;;;24.14;44.48;97292.13;10299771;28;20106;-57
2022/05/24 10:32:05;;;;;;;6.85;3.55;;;;;;;23.21;45.58;97299.56;10296787;28;20073;-57
2022/05/24 10:43:06;;;;;;;12.45;4.43;;;;;;;21.72;49.18;97328.16;10295192;28;20069;-57
2022/05/24 10:48:08;;;;;;;5.82;3.85;;;;;;;21.06;50.72;97348.19;10298457;28;20073;-59
2022/05/24 10:53:13;;;;;;;7.68;4.07;;;;;;;20.87;51.84;97357.94;10288571;28;20076;-59
2022/05/24 10:58:18;;;;;;;6.97;4.47;;;;;;;20.67;51.54;97354.47;10295282;28;21089;-59
2022/05/24 11:03:28;;;;;;;5.97;3.80;;;;;;;20.99;52.02;97345.94;10296079;28;20076;-59
2022/05/24 11:08:46;;;;;;;4.38;3.97;;;;;;;20.90;51.97;97328.78;10295326;28;20080;-59
2022/05/24 11:14:00;;;;;;;7.47;3.95;;;;;;;20.97;52.58;97321.41;10282662;28;20477;-59
2022/05/24 11:18:59;;;;;;;6.15;4.65;;;;;;;21.28;51.84;97299.63;10295769;28;20058;-59
2022/05/24 11:24:06;;;;;;;7.22;4.22;;;;;;;21.29;50.73;97281.09;10284180;28;20069;-59
2022/05/24 11:29:25;;;;;;;9.13;4.38;;;;;;;21.65;50.15;97266.03;10308309;28;20061;-59
2022/05/24 11:34:31;;;;;;;6.38;4.90;;;;;;;21.84;49.53;97258.81;10294271;28;20077;-59
2022/05/24 11:39:35;;;;;;;7.03;4.35;;;;;;;22.01;50.47;97255.28;10292613;28;20068;-57
2022/05/24 11:44:37;;;;;;;8.13;4.43;;;;;;;21.90;50.02;97244.44;10295779;28;20073;-57
2022/05/24 11:49:36;;;;;;;6.53;4.10;;;;;;;21.66;50.91;97230.75;10283921;28;20091;-59
2022/05/24 11:54:44;;;;;;;7.70;4.55;;;;;;;21.95;50.64;97229.19;10285845;28;20168;-59
2022/05/24 11:59:43;;;;;;;7.72;4.70;;;;;;;21.99;51.16;97219.31;10294575;28;20485;-57
2022/05/24 12:10:21;;;;;;;;;;;;;;;22.34;50.38;97212.03;10254983;28;20490;-57
2022/05/24 12:15:23;;;;;;;10.13;4.20;;;;;;;22.24;49.58;97214.34;10268072;28;19957;-57
2022/05/24 12:20:34;;;;;;;7.38;5.00;;;;;;;22.39;48.51;97215.28;10291272;28;20492;-57
2022/05/24 12:26:01;;;;;;;9.60;4.70;;;;;;;22.90;48.74;97204.41;10285066;28;20068;-57
2022/05/24 12:31:21;;;;;;;5.53;4.57;;;;;;;23.31;47.91;97193.13;10291907;28;20438;-57
2022/05/24 12:36:32;;;;;;;9.27;4.93;;;;;;;23.40;47.05;97195.22;10292099;28;20159;-59
2022/05/24 12:41:42;;;;;;;8.00;4.40;;;;;;;23.29;47.49;97200.31;10296006;28;20061;-57
2022/05/24 12:46:47;;;;;;;6.90;4.93;;;;;;;23.40;48.08;97184.63;10292328;28;20523;-57
2022/05/24 12:51:46;;;;;;;5.95;4.90;;;;;;;23.56;47.15;97176.56;10284590;28;20069;-57
2022/05/24 12:57:01;;;;;;;7.38;5.00;;;;;;;23.82;47.00;97165.19;10295221;28;20076;-57
2022/05/24 13:02:26;;;;;;;6.57;4.80;;;;;;;24.44;45.74;97158.56;10295501;28;20073;-57
2022/05/24 13:07:46;;;;;;;9.25;5.15;;;;;;;24.58;45.00;97133.75;10256106;28;20080;-57
2022/05/24 13:12:48;;;;;;;6.03;4.65;;;;;;;24.25;45.24;97161.59;10254768;28;20157;-57
2022/05/24 13:17:54;;;;;;;6.60;4.72;;;;;;;24.00;45.98;97163.13;10274610;28;20076;-57
2022/05/24 13:22:56;;;;;;;6.72;4.95;;;;;;;23.47;47.23;97151.53;10302548;28;20064;-57
2022/05/24 13:28:01;;;;;;;7.88;5.10;;;;;;;23.35;47.80;97141.66;10300610;28;20058;-58
2022/05/24 13:38:27;;;;;;;7.00;4.57;;;;;;;23.75;47.71;97144.50;10291944;28;20500;-58
2022/05/24 13:43:38;;;;;;;10.57;4.55;;;;;;;23.64;47.19;97140.72;10292003;28;20065;-58
2022/05/24 13:48:44;;;;;;;5.68;4.43;;;;;;;23.75;47.78;97144.50;10305099;28;20464;-58
2022/05/24 13:53:43;;;;;;;7.10;4.88;;;;;;;23.79;47.50;97138.88;10289696;28;20073;-58
2022/05/24 13:58:48;;;;;;;7.38;4.72;;;;;;;23.80;47.17;97139.75;10290440;28;20069;-57
2022/05/24 14:03:54;;;;;;;9.18;4.53;;;;;;;24.02;47.79;97150.66;10290026;28;20069;-58
2022/05/24 14:08:56;;;;;;;7.45;5.22;;;;;;;23.83;47.64;97145.69;10290496;28;20081;-58
2022/05/24 14:13:55;;;;;;;6.97;4.93;;;;;;;23.94;47.04;97147.66;10264803;28;20088;-58
2022/05/24 14:18:54;;;;;;;5.72;4.40;;;;;;;24.19;46.92;97133.69;10290523;28;20824;-57
2022/05/24 14:23:54;;;;;;;4.78;4.32;;;;;;;24.23;47.65;97145.78;10289211;28;20379;-58
2022/05/24 14:28:54;;;;;;;5.88;4.80;;;;;;;24.42;46.89;97145.41;10290728;28;20066;-57
2022/05/24 14:33:53;;;;;;;6.82;4.47;;;;;;;24.63;46.91;97147.56;10295272;28;20088;-57
2022/05/24 14:38:52;;;;;;;6.82;4.32;;;;;;;24.74;46.67;97144.19;10296926;28;20084;-58
2022/05/24 14:43:59;;;;;;;7.07;4.72;;;;;;;24.37;47.45;97142.19;10296883;28;20038;-58
2022/05/24 14:48:58;;;;;;;8.68;4.90;;;;;;;24.33;47.89;97161.91;10296272;28;20076;-57
2022/05/24 14:54:02;;;;;;;6.45;4.78;;;;;;;24.17;48.08;97171.78;10294877;28;20069;-57
2022/05/24 14:59:01;;;;;;;7.25;4.82;;;;;;;24.08;49.32;97186.53;10295686;28;20099;-58
2022/05/24 15:04:00;;;;;;;9.27;4.93;;;;;;;24.06;49.34;97191.06;10296875;28;20069;-57
2022/05/24 15:19:37;;;;;;;8.82;4.88;;;;;;;23.90;49.68;97211.56;10296028;28;20672;-57
2022/05/24 15:24:39;;;;;;;6.13;4.80;;;;;;;23.74;49.63;97219.59;10294212;28;20088;-57
2022/05/24 15:29:38;;;;;;;7.05;5.45;;;;;;;24.01;49.07;97227.63;10295847;28;20049;-58
2022/05/24 15:34:38;;;;;;;6.95;4.90;;;;;;;24.17;49.27;97224.81;10294372;28;20089;-58
2022/05/24 15:39:37;;;;;;;6.32;5.28;;;;;;;24.41;48.27;97241.00;10295316;28;20069;-58
2022/05/24 15:44:37;;;;;;;8.02;5.15;;;;;;;24.59;48.09;97238.91;10295567;28;20037;-58
2022/05/24 15:49:36;;;;;;;6.97;4.88;;;;;;;24.20;49.03;97240.59;10294320;28;20064;-58
2022/05/24 15:54:35;;;;;;;7.60;5.63;;;;;;;23.93;50.59;97235.19;10293493;28;20038;-58
2022/05/24 15:59:34;;;;;;;6.32;5.13;;;;;;;23.62;50.55;97240.63;10295032;28;20065;-58
2022/05/24 16:10:03;;;;;;;7.10;5.10;;;;;;;23.16;52.83;97259.28;10294794;28;20114;-58
2022/05/24 16:15:04;;;;;;;7.47;5.03;;;;;;;22.92;53.51;97258.94;10295151;28;20468;-58
2022/05/24 16:20:07;;;;;;;8.65;5.22;;;;;;;22.96;53.56;97263.09;10293431;28;20088;-58
2022/05/24 16:25:07;;;;;;;7.25;5.30;;;;;;;23.13;53.18;97266.56;10292547;28;20065;-58
2022/05/24 16:30:07;;;;;;;7.03;5.70;;;;;;;23.02;52.95;97275.13;10293302;28;20061;-58
2022/05/24 16:35:07;;;;;;;6.35;5.28;;;;;;;23.08;54.05;97279.22;10287644;28;20069;-58
2022/05/24 16:40:07;;;;;;;6.65;4.85;;;;;;;22.82;54.63;97283.38;10293495;28;20069;-58
2022/05/24 16:45:07;;;;;;;9.75;5.55;;;;;;;22.46;55.05;97255.41;10292306;28;20076;-58
2022/05/24 16:50:07;;;;;;;8.27;5.82;;;;;;;22.56;55.56;97280.41;10293277;28;20069;-57
2022/05/24 17:00:24;;;;;;;7.60;5.50;;;;;;;22.49;55.92;97281.69;10291692;28;20524;-58
2022/05/24 17:05:28;;;;;;;8.13;5.70;;;;;;;22.36;55.92;97279.72;10291057;28;20497;-58
2022/05/24 17:10:27;;;;;;;9.18;6.00;;;;;;;22.06;57.38;97286.72;10276557;28;20072;-58
2022/05/24 17:15:27;;;;;;;10.93;6.03;;;;;;;21.82;58.17;97289.72;10290139;28;20828;-58
2022/05/24 17:20:28;;;;;;;8.32;6.70;;;;;;;21.75;58.61;97293.63;10291708;28;20073;-58
2022/05/24 17:25:27;;;;;;;10.50;7.00;;;;;;;21.67;58.41;97307.25;10290331;28;20065;-58
2022/05/24 17:30:28;;;;;;;11.88;7.65;;;;;;;21.54;58.78;97296.47;10289900;28;20082;-58
2022/05/24 17:35:27;;;;;;;8.63;6.38;;;;;;;21.31;58.55;97294.19;10294219;28;20061;-58
2022/05/24 17:40:31;;;;;;;9.40;6.90;;;;;;;21.17;58.98;97296.66;10293887;28;20144;-58
2022/05/24 17:45:32;;;;;;;8.10;6.13;;;;;;;20.87;59.40;97308.69;10294204;28;20474;-59
2022/05/24 17:50:33;;;;;;;9.60;6.45;;;;;;;20.57;59.49;97310.19;10293702;28;20072;-59
2022/05/24 17:55:35;;;;;;;8.68;6.45;;;;;;;20.29;60.11;97293.88;10292393;28;20065;-59
2022/05/24 18:00:34;;;;;;;12.52;8.15;;;;;;;20.18;60.36;97292.66;10294631;28;20073;-59
2022/05/24 18:05:35;;;;;;;10.52;7.20;;;;;;;20.02;60.75;97310.97;10295873;28;20061;-59
2022/05/24 18:10:36;;;;;;;9.70;6.93;;;;;;;19.93;61.57;97317.53;10301043;28;20053;-59
2022/05/24 18:15:36;;;;;;;9.75;7.07;;;;;;;19.78;62.33;97331.38;10295070;28;20054;-59
2022/05/24 18:20:38;;;;;;;10.27;7.13;;;;;;;19.73;62.44;97326.31;10279924;28;20082;-59
2022/05/24 18:36:32;;;;;;;9.95;7.75;;;;;;;19.69;64.61;97345.78;10290352;28;20070;-59
2022/05/24 18:41:31;;;;;;;9.93;8.45;;;;;;;19.60;66.13;97340.94;10293106;28;20054;-59
2022/05/24 18:46:30;;;;;;;12.48;8.93;;;;;;;19.32;68.29;97336.84;10267618;28;20038;-58
2022/05/24 18:51:29;;;;;;;10.48;7.45;;;;;;;19.11;70.30;97337.75;10256932;28;20555;-58
2022/05/24 18:56:29;;;;;;;14.15;8.05;;;;;;;18.87;71.21;97340.47;10279010;28;20560;-58
2022/05/24 19:01:28;;;;;;;11.85;8.32;;;;;;;18.63;73.05;97344.91;10297166;28;20069;-59
2022/05/24 19:06:27;;;;;;;13.93;8.32;;;;;;;18.57;73.00;97353.91;10296191;28;20080;-59
2022/05/24 19:11:26;;;;;;;12.93;8.13;;;;;;;18.54;72.78;97359.28;10284910;28;20073;-58
2022/05/24 19:16:25;;;;;;;10.00;7.90;;;;;;;18.50;72.63;97360.34;10275079;28;20057;-58
2022/05/24 19:21:24;;;;;;;11.38;8.40;;;;;;;18.38;73.49;97358.16;10274175;28;20072;-58
2022/05/24 19:26:23;;;;;;;11.73;8.68;;;;;;;18.34;73.31;97359.22;10290358;28;20034;-58
2022/05/24 19:31:22;;;;;;;11.63;8.35;;;;;;;18.32;73.28;97364.53;10290857;28;20026;-58
2022/05/24 19:36:22;;;;;;;13.25;8.50;;;;;;;18.22;73.19;97368.38;10291707;28;20060;-58
2022/05/24 19:46:38;;;;;;;11.10;9.00;;;;;;;18.14;73.36;97371.31;10295519;28;20065;-59
2022/05/24 19:51:38;;;;;;;9.50;7.93;;;;;;;17.96;74.04;97348.38;10293412;28;20117;-58
2022/05/24 19:56:37;;;;;;;9.73;8.57;;;;;;;17.96;74.42;97382.50;10293075;28;20474;-58
2022/05/24 20:01:36;;;;;;;12.50;8.25;;;;;;;17.89;74.43;97379.22;10293510;28;20413;-58
2022/05/24 20:06:35;;;;;;;;;;;;;;;17.79;75.13;97372.63;10294365;28;20052;-59
2022/05/24 20:11:35;;;;;;;11.40;7.87;;;;;;;17.79;75.51;97379.63;10293535;28;20039;-59
2022/05/24 21:55:32;;;;;;;10.77;9.63;;;;;;;15.55;87.69;97422.28;10451390;28;20427;-57
2022/05/24 22:00:50;;;;;;;13.50;10.40;;;;;;;15.62;87.38;97423.84;10450102;28;20067;-58
2022/05/24 22:05:49;;;;;;;13.50;10.85;;;;;;;15.70;86.87;97439.31;10444312;28;20128;-58
2022/05/24 22:10:48;;;;;;;;;;;;;;;15.71;86.73;97445.41;10412645;28;20086;-58
2022/05/24 22:15:48;;;;;;;13.68;11.05;;;;;;;15.59;87.45;97444.81;10443784;28;19908;-58
2022/05/24 22:20:46;;;;;;;15.35;11.95;;;;;;;15.56;87.79;97471.06;10448593;28;20067;-58
2022/05/24 22:25:45;;;;;;;;;;;;;;;15.53;87.76;97468.53;10444398;28;20032;-58
2022/05/24 22:30:44;;;;;;;13.38;11.32;;;;;;;15.46;87.42;97470.44;10451310;28;19916;-58
2022/05/24 22:35:45;;;;;;;14.38;12.02;;;;;;;15.39;87.33;97449.72;10451686;28;20509;-58
2022/05/24 22:40:44;;;;;;;18.15;12.63;;;;;;;15.43;87.16;97465.28;10451321;28;20052;-58
2022/05/24 22:45:43;;;;;;;;;;;;;;;15.48;87.13;97472.16;10451825;28;20462;-58
2022/05/24 22:50:42;;;;;;;13.60;11.73;;;;;;;15.46;87.19;97477.44;10451029;28;20310;-57
2022/05/24 22:55:41;;;;;;;16.60;12.10;;;;;;;15.42;86.80;97487.09;10420686;28;20123;-58
2022/05/24 23:00:41;;;;;;;16.33;13.00;;;;;;;15.38;87.46;97489.81;10414106;28;20111;-58
2022/05/24 23:05:40;;;;;;;13.95;12.18;;;;;;;15.38;87.67;97484.59;10423053;28;20071;-58
2022/05/24 23:10:39;;;;;;;;;;;;;;;15.39;87.61;97486.34;10422457;28;20055;-58
2022/05/24 23:15:38;;;;;;;16.60;11.82;;;;;;;15.38;87.27;97489.81;10409512;28;19912;-58
2022/05/24 23:20:37;;;;;;;16.98;12.32;;;;;;;15.26;88.36;97480.53;10413135;28;20079;-58
2022/05/24 23:25:39;;;;;;;;;;;;;;;15.07;89.55;97485.34;10400301;28;20036;-57
2022/05/24 23:30:38;;;;;;;19.88;14.38;;;;;;;14.96;89.48;97474.25;10394449;28;19966;-58
2022/05/24 23:35:37;;;;;;;19.00;14.18;;;;;;;14.90;89.66;97482.25;10379260;28;20072;-57
2022/05/24 23:40:36;;;;;;;;;;;;;;;14.78;90.29;97479.03;10380399;28;20025;-58
2022/05/24 23:45:35;;;;;;;16.92;13.68;;;;;;;14.71;90.31;97485.28;10379762;28;20511;-57
2022/05/24 23:50:34;;;;;;;16.17;14.48;;;;;;;14.70;90.15;97467.88;10380372;28;20029;-58
2022/05/24 23:55:33;;;;;;;17.42;13.60;;;;;;;14.79;90.00;97479.88;10407278;28;20039;-57
